Time;durP1;ratioP1;P1;durP2;ratioP2;P2;SDS_P1;SDS_P2;PMS_P1;PMS_P2;Temp;Humidity;BMP_temperature;BMP_pressure;BME280_temperature;BME280_humidity;BME280_pressure;Samples;Min_cycle;Max_cycle;Signal;HPM_P1;HPM_P2
2023/06/23 00:00:00;;;;;;;;;;;22.00;98.80;;;;;;6229528;28;1386;-76
2023/06/23 00:03:02;;;;;;;;;;;22.00;98.80;;;;;;6229705;28;1130;-74
2023/06/23 00:06:04;;;;;;;;;;;21.90;99.10;;;;;;6231125;28;1528;-75
2023/06/23 00:09:13;;;;;;;;;;;21.90;99.40;;;;;;6237007;28;1416;-76
2023/06/23 00:12:16;;;;;;;;;;;22.00;99.50;;;;;;6229623;28;996;-76
2023/06/23 00:15:18;;;;;;;;;;;21.90;99.60;;;;;;6229758;28;1906;-76
2023/06/23 00:18:20;;;;;;;;;;;21.90;99.80;;;;;;6228264;28;1571;-77
2023/06/23 00:21:22;;;;;;;;;;;21.90;99.90;;;;;;6229867;28;1458;-74
2023/06/23 00:24:23;;;;;;;;;;;21.70;99.90;;;;;;6228944;28;1071;-76
2023/06/23 00:27:26;;;;;;;;;;;21.60;99.90;;;;;;6208307;28;1393;-76
2023/06/23 00:30:28;;;;;;;;;;;21.40;99.90;;;;;;6226335;28;1481;-75
2023/06/23 00:33:30;;;;;;;;;;;21.30;99.90;;;;;;6251865;28;1339;-76
2023/06/23 00:36:32;;;;;;;;;;;21.20;99.90;;;;;;6252394;28;1902;-76
2023/06/23 00:39:33;;;;;;;;;;;21.20;99.90;;;;;;6236412;28;1495;-75
2023/06/23 00:42:45;;;;;;;;;;;21.10;99.90;;;;;;6228903;28;1442;-75
2023/06/23 00:45:47;;;;;;;;;;;21.00;99.90;;;;;;6227852;28;1382;-75
2023/06/23 00:48:49;;;;;;;;;;;21.00;99.90;;;;;;6236188;28;1449;-76
2023/06/23 00:51:50;;;;;;;;;;;21.00;99.90;;;;;;6252747;28;1096;-76
2023/06/23 00:54:52;;;;;;;;;;;20.90;99.90;;;;;;6249470;28;1981;-74
2023/06/23 00:57:58;;;;;;;;;;;20.90;99.90;;;;;;6233198;28;1616;-74
2023/06/23 01:01:00;;;;;;;;;;;20.90;99.90;;;;;;6252187;28;1047;-77
2023/06/23 01:04:02;;;;;;;;;;;20.80;99.90;;;;;;6252510;28;1033;-76
2023/06/23 01:07:14;;;;;;;;;;;20.70;99.90;;;;;;6228414;28;1354;-75
2023/06/23 01:10:21;;;;;;;;;;;20.60;99.90;;;;;;6204411;28;1023;-74
2023/06/23 01:13:32;;;;;;;;;;;20.60;99.90;;;;;;6221632;28;1393;-75
2023/06/23 01:16:37;;;;;;;;;;;20.50;99.90;;;;;;6227605;28;1918;-75
2023/06/23 01:19:53;;;;;;;;;;;20.50;99.90;;;;;;6230053;28;1536;-76
2023/06/23 01:23:14;;;;;;;;;;;20.50;99.90;;;;;;6227616;28;1406;-74
2023/06/23 01:26:33;;;;;;;;;;;20.50;99.90;;;;;;6227853;28;1207;-73
2023/06/23 01:29:38;;;;;;;;;;;20.40;99.90;;;;;;6226080;28;1651;-74
2023/06/23 01:32:44;;;;;;;;;;;20.40;99.90;;;;;;6226935;28;1450;-75
2023/06/23 01:36:03;;;;;;;;;;;20.30;99.90;;;;;;6227098;28;1902;-75
2023/06/23 01:39:07;;;;;;;;;;;20.30;99.90;;;;;;6233228;28;2307;-75
2023/06/23 01:42:12;;;;;;;;;;;20.20;99.90;;;;;;6242876;28;1361;-75
2023/06/23 01:45:16;;;;;;;;;;;20.10;99.90;;;;;;6226329;28;1438;-76
2023/06/23 01:48:18;;;;;;;;;;;20.20;99.90;;;;;;6237929;28;1453;-74
2023/06/23 01:51:20;;;;;;;;;;;20.10;99.90;;;;;;6251655;28;1111;-76
2023/06/23 01:54:23;;;;;;;;;;;20.10;99.90;;;;;;6251156;28;1142;-74
2023/06/23 01:57:25;;;;;;;;;;;20.00;99.90;;;;;;6232854;28;1985;-73
2023/06/23 02:00:29;;;;;;;;;;;19.90;99.90;;;;;;6242262;28;1453;-74
2023/06/23 02:03:31;;;;;;;;;;;19.80;99.90;;;;;;6226761;28;1116;-77
2023/06/23 02:06:35;;;;;;;;;;;19.70;99.90;;;;;;6225158;28;1671;-75
2023/06/23 02:09:38;;;;;;;;;;;19.50;99.90;;;;;;6231814;28;1465;-73
2023/06/23 02:12:41;;;;;;;;;;;19.50;99.90;;;;;;6226003;28;1077;-76
2023/06/23 02:15:44;;;;;;;;;;;19.50;99.90;;;;;;6225937;28;1989;-77
2023/06/23 02:18:53;;;;;;;;;;;19.40;99.90;;;;;;6237399;28;1565;-75
2023/06/23 02:21:56;;;;;;;;;;;19.30;99.90;;;;;;6233886;28;1469;-76
2023/06/23 02:24:59;;;;;;;;;;;19.10;99.90;;;;;;6245631;28;1409;-77
2023/06/23 02:28:02;;;;;;;;;;;19.10;99.90;;;;;;6249002;28;1486;-74
2023/06/23 02:31:05;;;;;;;;;;;19.10;99.90;;;;;;6250950;28;1123;-77
2023/06/23 02:34:08;;;;;;;;;;;19.00;99.90;;;;;;6250158;28;1182;-74
2023/06/23 02:37:10;;;;;;;;;;;19.10;99.90;;;;;;6230186;28;1987;-75
2023/06/23 02:40:16;;;;;;;;;;;19.00;99.90;;;;;;6242344;28;1421;-76
2023/06/23 02:43:18;;;;;;;;;;;18.90;99.90;;;;;;6224654;28;1373;-77
2023/06/23 02:46:23;;;;;;;;;;;18.90;99.90;;;;;;6227434;28;1374;-76
2023/06/23 02:49:28;;;;;;;;;;;18.90;99.90;;;;;;6245373;28;1350;-77
2023/06/23 02:52:34;;;;;;;;;;;18.90;99.90;;;;;;6250565;28;1028;-76
2023/06/23 02:55:39;;;;;;;;;;;18.80;99.90;;;;;;6252588;28;1986;-75
2023/06/23 02:58:41;;;;;;;;;;;18.70;99.90;;;;;;6239906;28;1453;-77
2023/06/23 03:01:45;;;;;;;;;;;18.70;99.90;;;;;;6245991;28;1169;-77
2023/06/23 03:04:46;;;;;;;;;;;18.70;99.90;;;;;;6249204;28;1638;-77
2023/06/23 03:07:51;;;;;;;;;;;18.60;99.90;;;;;;6247224;28;1402;-76
2023/06/23 03:10:54;;;;;;;;;;;18.60;99.90;;;;;;6244418;28;1445;-76
2023/06/23 03:13:56;;;;;;;;;;;18.70;99.90;;;;;;6231053;28;1040;-77
2023/06/23 03:17:01;;;;;;;;;;;18.60;99.90;;;;;;6229744;28;1906;-75
2023/06/23 03:20:08;;;;;;;;;;;18.70;99.90;;;;;;6205769;28;1010;-75
2023/06/23 03:23:13;;;;;;;;;;;18.80;99.90;;;;;;6205558;28;1079;-75
2023/06/23 03:26:14;;;;;;;;;;;18.80;99.90;;;;;;6219454;28;1458;-75
2023/06/23 03:29:18;;;;;;;;;;;18.80;99.90;;;;;;6229994;28;1373;-77
2023/06/23 03:32:25;;;;;;;;;;;18.80;99.90;;;;;;6235058;28;1484;-76
2023/06/23 03:35:31;;;;;;;;;;;18.90;99.90;;;;;;6249083;28;1981;-76
2023/06/23 03:38:36;;;;;;;;;;;18.90;99.90;;;;;;6214822;28;2511;-75
2023/06/23 03:41:39;;;;;;;;;;;18.90;99.90;;;;;;6205571;28;1095;-76
2023/06/23 03:44:44;;;;;;;;;;;18.90;99.90;;;;;;6205036;28;1060;-77
2023/06/23 03:47:48;;;;;;;;;;;18.80;99.90;;;;;;6217765;28;1452;-77
2023/06/23 03:50:51;;;;;;;;;;;18.90;99.90;;;;;;6229537;28;1421;-77
2023/06/23 03:53:53;;;;;;;;;;;18.90;99.90;;;;;;6229631;28;1430;-78
2023/06/23 03:56:56;;;;;;;;;;;18.90;99.90;;;;;;6228523;28;1903;-75
2023/06/23 03:59:58;;;;;;;;;;;18.90;99.90;;;;;;6252683;28;1469;-77
2023/06/23 04:03:02;;;;;;;;;;;18.90;99.90;;;;;;6229405;28;1105;-80
2023/06/23 04:06:06;;;;;;;;;;;18.90;99.90;;;;;;6227777;28;1480;-78
2023/06/23 04:09:08;;;;;;;;;;;19.00;99.90;;;;;;6230595;28;1444;-78
2023/06/23 04:12:13;;;;;;;;;;;19.00;99.90;;;;;;6252534;28;1114;-77
2023/06/23 04:15:18;;;;;;;;;;;19.00;99.90;;;;;;6236350;28;3054;-75
2023/06/23 04:18:22;;;;;;;;;;;19.00;99.90;;;;;;6243778;28;1973;-79
2023/06/23 04:21:24;;;;;;;;;;;19.00;99.90;;;;;;6251066;28;1413;-76
2023/06/23 04:24:26;;;;;;;;;;;19.00;99.90;;;;;;6253018;28;1017;-77
2023/06/23 04:27:29;;;;;;;;;;;19.00;99.90;;;;;;6230723;28;1449;-76
2023/06/23 04:30:32;;;;;;;;;;;19.00;99.90;;;;;;6228366;28;1034;-77
2023/06/23 04:33:36;;;;;;;;;;;19.00;99.90;;;;;;6227940;28;1142;-78
2023/06/23 04:36:41;;;;;;;;;;;19.00;99.90;;;;;;6227932;28;1973;-78
2023/06/23 04:39:47;;;;;;;;;;;18.90;99.90;;;;;;6228401;28;1418;-79
2023/06/23 04:42:52;;;;;;;;;;;19.00;99.90;;;;;;6227968;28;1085;-79
2023/06/23 04:45:56;;;;;;;;;;;18.90;99.90;;;;;;6227574;28;1098;-77
2023/06/23 04:49:03;;;;;;;;;;;18.90;99.90;;;;;;6227799;28;1220;-79
2023/06/23 04:52:07;;;;;;;;;;;18.90;99.90;;;;;;6227919;28;1429;-80
2023/06/23 04:55:10;;;;;;;;;;;18.90;99.90;;;;;;6228597;28;1090;-79
2023/06/23 04:58:13;;;;;;;;;;;18.90;99.90;;;;;;6227660;28;1902;-79
2023/06/23 05:01:16;;;;;;;;;;;18.90;99.90;;;;;;6217287;28;2833;-80
2023/06/23 05:04:20;;;;;;;;;;;18.80;99.90;;;;;;6208976;28;1482;-78
2023/06/23 05:07:23;;;;;;;;;;;18.80;99.90;;;;;;6227585;28;997;-79
2023/06/23 05:10:25;;;;;;;;;;;18.80;99.90;;;;;;6227570;28;1143;-79
2023/06/23 05:13:29;;;;;;;;;;;18.80;99.90;;;;;;6227475;28;1082;-78
2023/06/23 05:16:31;;;;;;;;;;;18.90;99.90;;;;;;6227387;28;1879;-78
2023/06/23 05:19:37;;;;;;;;;;;18.90;99.90;;;;;;6226878;28;1101;-76
2023/06/23 05:22:39;;;;;;;;;;;18.70;99.90;;;;;;6227616;28;1096;-77
2023/06/23 05:25:41;;;;;;;;;;;18.80;99.90;;;;;;6227925;28;1094;-78
2023/06/23 05:28:44;;;;;;;;;;;18.90;99.90;;;;;;6227063;28;1415;-78
2023/06/23 05:31:46;;;;;;;;;;;18.90;99.90;;;;;;6227135;28;1026;-77
2023/06/23 05:34:50;;;;;;;;;;;18.90;99.90;;;;;;6227097;28;1271;-77
2023/06/23 05:37:52;;;;;;;;;;;18.90;99.90;;;;;;6227344;28;1981;-79
2023/06/23 05:40:54;;;;;;;;;;;18.90;99.90;;;;;;6227501;28;1469;-79
2023/06/23 05:43:55;;;;;;;;;;;18.90;99.90;;;;;;6227296;28;1229;-74
2023/06/23 05:46:58;;;;;;;;;;;18.90;99.90;;;;;;6227077;28;1018;-77
2023/06/23 05:50:02;;;;;;;;;;;18.90;99.90;;;;;;6226920;28;1087;-79
2023/06/23 05:53:06;;;;;;;;;;;18.90;99.90;;;;;;6227366;28;1085;-79
2023/06/23 05:56:14;;;;;;;;;;;18.90;99.90;;;;;;6226530;28;1971;-77
2023/06/23 05:59:20;;;;;;;;;;;18.90;99.90;;;;;;6226769;28;1026;-76
2023/06/23 06:02:25;;;;;;;;;;;18.90;99.90;;;;;;6226474;28;1085;-79
2023/06/23 06:05:29;;;;;;;;;;;18.90;99.90;;;;;;6226335;28;1450;-79
2023/06/23 06:08:31;;;;;;;;;;;18.90;99.90;;;;;;6226137;28;1087;-78
2023/06/23 06:11:34;;;;;;;;;;;18.90;99.90;;;;;;6226425;28;1542;-77
2023/06/23 06:14:36;;;;;;;;;;;19.00;99.90;;;;;;6226312;28;1036;-76
2023/06/23 06:17:40;;;;;;;;;;;19.00;99.90;;;;;;6225829;28;1898;-78
2023/06/23 06:20:45;;;;;;;;;;;19.00;99.90;;;;;;6226016;28;1450;-78
2023/06/23 06:23:48;;;;;;;;;;;19.00;99.90;;;;;;6226564;28;1158;-78
2023/06/23 06:26:50;;;;;;;;;;;19.00;99.90;;;;;;6226141;28;1089;-77
2023/06/23 06:29:53;;;;;;;;;;;19.00;99.90;;;;;;6226021;28;1079;-76
2023/06/23 06:32:55;;;;;;;;;;;19.10;99.90;;;;;;6225883;28;1458;-78
2023/06/23 06:36:03;;;;;;;;;;;19.00;99.90;;;;;;6226200;28;1097;-78
2023/06/23 06:39:06;;;;;;;;;;;18.90;99.90;;;;;;6226372;28;1093;-78
2023/06/23 06:42:08;;;;;;;;;;;19.00;99.90;;;;;;6225685;28;1489;-79
2023/06/23 06:45:10;;;;;;;;;;;19.00;99.90;;;;;;6225886;28;1029;-78
2023/06/23 06:48:13;;;;;;;;;;;19.10;99.90;;;;;;6225637;28;1059;-77
2023/06/23 06:51:17;;;;;;;;;;;19.10;99.90;;;;;;6225393;28;1446;-76
2023/06/23 06:54:19;;;;;;;;;;;19.10;99.90;;;;;;6225389;28;1063;-78
2023/06/23 06:57:21;;;;;;;;;;;19.20;99.90;;;;;;6225682;28;1972;-78
2023/06/23 07:00:25;;;;;;;;;;;19.30;99.90;;;;;;6224593;28;2646;-78
2023/06/23 07:03:27;;;;;;;;;;;19.40;99.90;;;;;;6225568;28;1434;-77
2023/06/23 07:06:30;;;;;;;;;;;19.40;99.90;;;;;;6224730;28;1446;-76
2023/06/23 07:09:32;;;;;;;;;;;19.40;99.90;;;;;;6224981;28;1984;-78
2023/06/23 07:12:33;;;;;;;;;;;19.50;99.90;;;;;;6225476;28;1513;-76
2023/06/23 07:15:35;;;;;;;;;;;19.50;99.90;;;;;;6225185;28;1465;-78
2023/06/23 07:18:37;;;;;;;;;;;19.70;99.90;;;;;;6225534;28;1907;-79
2023/06/23 07:21:40;;;;;;;;;;;19.70;99.90;;;;;;6225246;28;1505;-77
2023/06/23 07:24:42;;;;;;;;;;;19.80;99.90;;;;;;6225657;28;1076;-78
2023/06/23 07:27:44;;;;;;;;;;;19.80;99.90;;;;;;6225625;28;1039;-78
2023/06/23 07:30:45;;;;;;;;;;;19.80;99.90;;;;;;6225558;28;1497;-77
2023/06/23 07:33:49;;;;;;;;;;;19.80;99.90;;;;;;6225328;28;1286;-77
2023/06/23 07:36:52;;;;;;;;;;;19.90;99.90;;;;;;6225404;28;1918;-77
2023/06/23 07:39:54;;;;;;;;;;;19.90;99.90;;;;;;6224394;28;3205;-79
2023/06/23 07:42:56;;;;;;;;;;;19.90;99.90;;;;;;6228489;28;1406;-78
2023/06/23 07:45:58;;;;;;;;;;;19.90;99.90;;;;;;6230153;28;1066;-78
2023/06/23 07:49:00;;;;;;;;;;;19.90;99.90;;;;;;6235683;28;1560;-76
2023/06/23 07:52:04;;;;;;;;;;;20.00;99.90;;;;;;6254119;28;1047;-76
2023/06/23 07:55:06;;;;;;;;;;;20.10;99.90;;;;;;6231067;28;1274;-77
2023/06/23 07:58:08;;;;;;;;;;;20.20;99.90;;;;;;6229844;28;1910;-77
2023/06/23 08:01:12;;;;;;;;;;;20.20;99.90;;;;;;6229354;28;1075;-78
2023/06/23 08:04:14;;;;;;;;;;;20.10;99.90;;;;;;6229204;28;1501;-76
2023/06/23 08:07:17;;;;;;;;;;;20.20;99.90;;;;;;6208666;28;1565;-77
2023/06/23 08:10:18;;;;;;;;;;;20.20;99.90;;;;;;6217778;28;1546;-77
2023/06/23 08:13:20;;;;;;;;;;;20.30;99.90;;;;;;6229433;28;1057;-77
2023/06/23 08:16:22;;;;;;;;;;;20.30;99.90;;;;;;6229601;28;1092;-78
2023/06/23 08:19:24;;;;;;;;;;;20.30;99.10;;;;;;6229473;28;1900;-78
2023/06/23 08:22:27;;;;;;;;;;;20.30;99.30;;;;;;6229338;28;1523;-79
2023/06/23 08:25:29;;;;;;;;;;;20.40;99.20;;;;;;6229243;28;1046;-75
2023/06/23 08:28:31;;;;;;;;;;;20.30;97.70;;;;;;6228731;28;1355;-76
2023/06/23 08:31:32;;;;;;;;;;;20.30;98.00;;;;;;6228853;28;1400;-77
2023/06/23 08:34:36;;;;;;;;;;;20.30;97.40;;;;;;6228758;28;1103;-76
2023/06/23 08:37:39;;;;;;;;;;;20.40;97.40;;;;;;6228808;28;1977;-78
2023/06/23 08:40:41;;;;;;;;;;;20.50;97.50;;;;;;6229444;28;1103;-79
2023/06/23 08:43:45;;;;;;;;;;;20.50;97.30;;;;;;6228692;28;1107;-76
2023/06/23 08:46:49;;;;;;;;;;;20.60;97.00;;;;;;6228565;28;1001;-77
2023/06/23 08:49:51;;;;;;;;;;;20.70;96.80;;;;;;6229248;28;1311;-77
2023/06/23 08:52:58;;;;;;;;;;;20.80;96.00;;;;;;6228716;28;1151;-76
2023/06/23 08:56:00;;;;;;;;;;;20.80;95.20;;;;;;6229240;28;1139;-76
2023/06/23 08:59:02;;;;;;;;;;;20.80;94.50;;;;;;6228912;28;1892;-79
2023/06/23 09:02:05;;;;;;;;;;;20.70;94.70;;;;;;6229249;28;1027;-76
2023/06/23 09:05:07;;;;;;;;;;;20.80;95.20;;;;;;6228518;28;1036;-76
2023/06/23 09:08:11;;;;;;;;;;;20.80;95.40;;;;;;6228059;28;1022;-74
2023/06/23 09:11:12;;;;;;;;;;;20.90;93.80;;;;;;6227222;28;1094;-72
2023/06/23 09:14:15;;;;;;;;;;;20.80;94.10;;;;;;6227498;28;1032;-75
2023/06/23 09:17:16;;;;;;;;;;;20.80;93.80;;;;;;6227613;28;1981;-74
2023/06/23 09:20:18;;;;;;;;;;;20.90;94.50;;;;;;6228140;28;1072;-75
2023/06/23 09:23:22;;;;;;;;;;;20.90;94.40;;;;;;6228053;28;1040;-75
2023/06/23 09:26:24;;;;;;;;;;;21.00;93.50;;;;;;6227552;28;1454;-77
2023/06/23 09:29:27;;;;;;;;;;;21.10;93.50;;;;;;6227699;28;1019;-78
2023/06/23 09:32:29;;;;;;;;;;;21.10;93.60;;;;;;6227563;28;1055;-75
2023/06/23 09:35:30;;;;;;;;;;;21.10;93.90;;;;;;6227136;28;1394;-77
2023/06/23 09:38:36;;;;;;;;;;;21.10;93.30;;;;;;6226873;28;1981;-77
2023/06/23 09:41:38;;;;;;;;;;;21.20;93.20;;;;;;6227751;28;1410;-76
2023/06/23 09:44:41;;;;;;;;;;;21.30;93.30;;;;;;6243838;28;1507;-73
2023/06/23 09:47:43;;;;;;;;;;;21.40;93.00;;;;;;6225367;28;1680;-75
2023/06/23 09:50:45;;;;;;;;;;;21.50;92.70;;;;;;6228041;28;1170;-74
2023/06/23 09:53:48;;;;;;;;;;;21.50;92.90;;;;;;6230433;28;1633;-76
2023/06/23 09:57:02;;;;;;;;;;;21.60;93.30;;;;;;6234770;28;1523;-75
2023/06/23 10:00:08;;;;;;;;;;;21.60;92.20;;;;;;6241355;28;1413;-76
2023/06/23 10:03:09;;;;;;;;;;;21.70;92.80;;;;;;6251366;28;1155;-76
2023/06/23 10:06:21;;;;;;;;;;;21.80;92.40;;;;;;6243866;28;1445;-77
2023/06/23 10:09:25;;;;;;;;;;;21.90;91.90;;;;;;6225446;28;1446;-77
2023/06/23 10:12:28;;;;;;;;;;;21.90;90.90;;;;;;6225578;28;1517;-77
2023/06/23 10:15:30;;;;;;;;;;;22.10;91.10;;;;;;6232122;28;1461;-75
2023/06/23 10:18:33;;;;;;;;;;;22.00;91.30;;;;;;6233565;28;1902;-75
2023/06/23 10:21:35;;;;;;;;;;;21.90;90.10;;;;;;6231465;28;1516;-78
2023/06/23 10:24:38;;;;;;;;;;;21.90;90.10;;;;;;6224873;28;1438;-74
2023/06/23 10:27:42;;;;;;;;;;;21.90;89.60;;;;;;6225602;28;1493;-76
2023/06/23 10:30:44;;;;;;;;;;;21.90;89.90;;;;;;6236453;28;1624;-75
2023/06/23 10:33:47;;;;;;;;;;;21.90;90.30;;;;;;6233417;28;1754;-75
2023/06/23 10:36:51;;;;;;;;;;;22.10;90.80;;;;;;6226617;28;1094;-73
2023/06/23 10:39:58;;;;;;;;;;;22.10;89.80;;;;;;6226467;28;1902;-76
2023/06/23 10:43:01;;;;;;;;;;;22.20;89.80;;;;;;6226631;28;1052;-74
2023/06/23 10:46:03;;;;;;;;;;;22.20;89.00;;;;;;6226898;28;1051;-74
2023/06/23 10:49:05;;;;;;;;;;;22.20;88.00;;;;;;6226554;28;937;-74
2023/06/23 10:52:09;;;;;;;;;;;22.30;89.10;;;;;;6226322;28;1048;-75
2023/06/23 10:55:36;;;;;;;;;;;22.50;88.90;;;;;;6226581;28;1077;-75
2023/06/23 10:58:49;;;;;;;;;;;22.60;86.90;;;;;;6225599;28;1902;-74
2023/06/23 11:02:17;;;;;;;;;;;22.60;88.00;;;;;;6226883;28;1052;-74
2023/06/23 11:05:19;;;;;;;;;;;22.60;87.50;;;;;;6227260;28;1067;-75
2023/06/23 11:08:27;;;;;;;;;;;22.60;86.20;;;;;;6229633;28;1131;-76
2023/06/23 11:11:34;;;;;;;;;;;22.60;84.40;;;;;;6240086;28;1074;-76
2023/06/23 11:14:43;;;;;;;;;;;22.50;85.00;;;;;;6240065;28;1083;-76
2023/06/23 11:17:46;;;;;;;;;;;22.50;86.20;;;;;;6244198;28;1992;-75
2023/06/23 11:20:48;;;;;;;;;;;22.40;84.70;;;;;;6235595;28;1134;-76
2023/06/23 11:24:12;;;;;;;;;;;22.40;86.00;;;;;;6230313;28;1033;-76
2023/06/23 11:27:16;;;;;;;;;;;22.50;85.80;;;;;;6230730;28;1003;-76
2023/06/23 11:30:18;;;;;;;;;;;22.60;85.30;;;;;;6230180;28;1113;-76
2023/06/23 11:33:27;;;;;;;;;;;22.70;83.70;;;;;;6229647;28;1172;-77
2023/06/23 11:36:30;;;;;;;;;;;22.80;83.10;;;;;;6230216;28;999;-77
2023/06/23 11:39:31;;;;;;;;;;;22.80;82.60;;;;;;6229959;28;1985;-75
2023/06/23 11:42:34;;;;;;;;;;;22.80;82.50;;;;;;6229853;28;1105;-77
2023/06/23 11:45:36;;;;;;;;;;;22.80;83.40;;;;;;6228491;28;1382;-77
2023/06/23 11:48:39;;;;;;;;;;;22.80;83.10;;;;;;6230925;28;1522;-73
2023/06/23 11:51:41;;;;;;;;;;;22.80;84.00;;;;;;6230794;28;1446;-74
2023/06/23 11:54:45;;;;;;;;;;;22.80;82.00;;;;;;6231613;28;1088;-77
2023/06/23 11:57:48;;;;;;;;;;;22.80;81.20;;;;;;6228584;28;1977;-74
2023/06/23 12:00:50;;;;;;;;;;;22.80;82.00;;;;;;6229420;28;1443;-78
2023/06/23 12:03:53;;;;;;;;;;;22.80;83.10;;;;;;6229193;28;1167;-77
2023/06/23 12:06:55;;;;;;;;;;;22.90;82.80;;;;;;6229217;28;1443;-76
2023/06/23 12:09:57;;;;;;;;;;;23.00;82.70;;;;;;6250701;28;1587;-77
2023/06/23 12:13:00;;;;;;;;;;;23.20;83.00;;;;;;6253002;28;1108;-77
2023/06/23 12:16:02;;;;;;;;;;;23.30;83.40;;;;;;6229755;28;1484;-75
2023/06/23 12:19:03;;;;;;;;;;;23.20;80.90;;;;;;6227532;28;1995;-75
2023/06/23 12:22:14;;;;;;;;;;;23.00;80.50;;;;;;6226854;28;1438;-74
2023/06/23 12:25:15;;;;;;;;;;;22.90;81.80;;;;;;6227620;28;1103;-74
2023/06/23 12:28:19;;;;;;;;;;;22.70;81.90;;;;;;6226058;28;1788;-75
2023/06/23 12:31:28;;;;;;;;;;;22.60;82.20;;;;;;6227311;28;1470;-76
2023/06/23 12:34:33;;;;;;;;;;;22.80;83.80;;;;;;6225811;28;1437;-74
2023/06/23 12:37:43;;;;;;;;;;;22.70;81.80;;;;;;6227477;28;1508;-73
2023/06/23 12:40:45;;;;;;;;;;;22.80;82.70;;;;;;6230313;28;1407;-74
2023/06/23 12:43:49;;;;;;;;;;;22.90;80.70;;;;;;6244957;28;1465;-75
2023/06/23 12:46:50;;;;;;;;;;;23.00;80.40;;;;;;6227216;28;1065;-75
2023/06/23 12:49:52;;;;;;;;;;;23.10;81.30;;;;;;6227119;28;1026;-74
2023/06/23 12:52:54;;;;;;;;;;;23.10;78.50;;;;;;6246563;28;1552;-75
2023/06/23 12:55:56;;;;;;;;;;;23.10;78.60;;;;;;6218232;28;1385;-74
2023/06/23 12:58:59;;;;;;;;;;;23.10;78.00;;;;;;6223974;28;1899;-75
2023/06/23 13:02:01;;;;;;;;;;;22.90;78.50;;;;;;6223766;28;1452;-75
2023/06/23 13:05:02;;;;;;;;;;;22.90;79.70;;;;;;6224017;28;1100;-76
2023/06/23 13:08:04;;;;;;;;;;;22.90;77.70;;;;;;6223910;28;1426;-74
2023/06/23 13:11:06;;;;;;;;;;;22.80;79.10;;;;;;6223864;28;1949;-76
2023/06/23 13:14:09;;;;;;;;;;;23.00;80.30;;;;;;6223736;28;1222;-76
2023/06/23 13:17:11;;;;;;;;;;;23.00;80.70;;;;;;6222832;28;1441;-75
2023/06/23 13:20:13;;;;;;;;;;;23.20;80.90;;;;;;6226007;28;1902;-76
2023/06/23 13:23:15;;;;;;;;;;;23.40;80.70;;;;;;6229376;28;1378;-73
2023/06/23 13:26:16;;;;;;;;;;;23.60;79.70;;;;;;6230476;28;1500;-73
2023/06/23 13:29:19;;;;;;;;;;;23.60;79.50;;;;;;6222440;28;1332;-75
2023/06/23 13:32:21;;;;;;;;;;;23.60;79.50;;;;;;6224869;28;1146;-75
2023/06/23 13:35:23;;;;;;;;;;;23.50;78.30;;;;;;6223094;28;1117;-74
2023/06/23 13:38:24;;;;;;;;;;;23.40;76.50;;;;;;6222501;28;1891;-76
2023/06/23 13:41:26;;;;;;;;;;;23.30;77.40;;;;;;6222329;28;1472;-76
2023/06/23 13:44:29;;;;;;;;;;;23.40;76.20;;;;;;6223399;28;1147;-76
2023/06/23 13:47:31;;;;;;;;;;;23.50;76.20;;;;;;6223520;28;1321;-76
2023/06/23 13:50:33;;;;;;;;;;;23.50;75.00;;;;;;6224402;28;1398;-76
2023/06/23 13:53:38;;;;;;;;;;;23.60;74.80;;;;;;6221870;28;1441;-76
2023/06/23 13:56:39;;;;;;;;;;;23.60;73.20;;;;;;6236424;28;1402;-75
2023/06/23 13:59:43;;;;;;;;;;;23.90;74.10;;;;;;6247991;28;1903;-76
2023/06/23 14:02:45;;;;;;;;;;;24.30;74.00;;;;;;6222379;28;1394;-76
2023/06/23 14:05:47;;;;;;;;;;;24.40;75.40;;;;;;6228635;28;1223;-76
2023/06/23 14:08:51;;;;;;;;;;;24.20;73.80;;;;;;6223104;28;1026;-76
2023/06/23 14:11:52;;;;;;;;;;;24.20;74.90;;;;;;6223105;28;966;-76
2023/06/23 14:14:55;;;;;;;;;;;24.10;74.50;;;;;;6222157;28;1452;-76
2023/06/23 14:17:57;;;;;;;;;;;24.20;72.30;;;;;;6220900;28;1455;-73
2023/06/23 14:20:59;;;;;;;;;;;24.50;73.00;;;;;;6220799;28;1918;-75
2023/06/23 14:24:01;;;;;;;;;;;24.70;74.10;;;;;;6231016;28;1108;-76
2023/06/23 14:27:02;;;;;;;;;;;25.00;73.50;;;;;;6228233;28;1452;-77
2023/06/23 14:30:07;;;;;;;;;;;25.20;72.30;;;;;;6228950;28;1417;-76
2023/06/23 14:33:10;;;;;;;;;;;25.50;72.20;;;;;;6243934;28;1468;-74
2023/06/23 14:36:12;;;;;;;;;;;25.70;69.60;;;;;;6246501;28;2049;-76
2023/06/23 14:39:13;;;;;;;;;;;25.50;68.00;;;;;;6217992;28;2341;-75
2023/06/23 14:42:15;;;;;;;;;;;25.30;69.00;;;;;;6221378;28;2761;-75
2023/06/23 14:45:18;;;;;;;;;;;25.20;69.20;;;;;;6209301;28;2986;-77
2023/06/23 14:48:21;;;;;;;;;;;25.20;68.20;;;;;;6222657;28;1038;-75
2023/06/23 14:51:23;;;;;;;;;;;25.20;69.30;;;;;;6204024;28;2811;-77
2023/06/23 14:54:25;;;;;;;;;;;25.30;68.10;;;;;;6223564;28;2683;-75
2023/06/23 14:57:27;;;;;;;;;;;25.20;67.70;;;;;;6226871;28;1144;-75
2023/06/23 15:00:30;;;;;;;;;;;25.20;67.20;;;;;;6202801;28;1907;-76
2023/06/23 15:03:32;;;;;;;;;;;25.30;67.90;;;;;;6202641;28;1134;-76
2023/06/23 15:06:33;;;;;;;;;;;25.30;66.80;;;;;;6201894;28;1122;-79
2023/06/23 15:09:35;;;;;;;;;;;25.60;67.10;;;;;;6202883;28;1054;-76
2023/06/23 15:12:37;;;;;;;;;;;25.80;65.20;;;;;;6202631;28;1018;-76
2023/06/23 15:15:40;;;;;;;;;;;26.10;65.20;;;;;;6206577;28;2876;-79
2023/06/23 15:18:41;;;;;;;;;;;26.30;63.70;;;;;;6218571;28;3629;-75
2023/06/23 15:21:43;;;;;;;;;;;26.60;63.10;;;;;;6230359;28;2984;-77
2023/06/23 15:24:45;;;;;;;;;;;26.80;61.40;;;;;;6227908;28;1054;-76
2023/06/23 15:27:47;;;;;;;;;;;26.60;61.00;;;;;;6228047;28;1243;-76
2023/06/23 15:30:50;;;;;;;;;;;26.60;62.20;;;;;;6227833;28;1547;-79
2023/06/23 15:33:51;;;;;;;;;;;26.40;63.30;;;;;;6225659;28;3313;-77
2023/06/23 15:36:53;;;;;;;;;;;26.40;62.90;;;;;;6222490;28;1583;-76
2023/06/23 15:39:58;;;;;;;;;;;26.70;62.70;;;;;;6223863;28;1983;-77
2023/06/23 15:42:59;;;;;;;;;;;27.10;61.70;;;;;;6231254;28;4426;-76
2023/06/23 15:46:02;;;;;;;;;;;27.40;61.70;;;;;;6226252;28;1827;-76
2023/06/23 15:49:04;;;;;;;;;;;27.40;62.40;;;;;;6227872;28;1640;-75
2023/06/23 15:52:07;;;;;;;;;;;27.80;61.10;;;;;;6214330;28;3000;-78
2023/06/23 15:55:10;;;;;;;;;;;28.00;61.20;;;;;;6200928;28;1018;-76
2023/06/23 15:58:11;;;;;;;;;;;28.10;60.00;;;;;;6207991;28;3280;-77
2023/06/23 16:01:15;;;;;;;;;;;28.10;60.60;;;;;;6244830;28;2883;-76
2023/06/23 16:04:17;;;;;;;;;;;28.10;60.50;;;;;;6229497;28;2843;-78
2023/06/23 16:07:19;;;;;;;;;;;28.60;59.90;;;;;;6242369;28;1393;-78
2023/06/23 16:10:20;;;;;;;;;;;28.90;58.50;;;;;;6221949;28;1588;-77
2023/06/23 16:13:22;;;;;;;;;;;28.80;59.20;;;;;;6243755;28;1402;-77
2023/06/23 16:16:25;;;;;;;;;;;28.40;58.60;;;;;;6245849;28;1405;-77
2023/06/23 16:19:27;;;;;;;;;;;28.00;59.90;;;;;;6224722;28;1906;-77
2023/06/23 16:22:29;;;;;;;;;;;27.80;59.90;;;;;;6224947;28;1331;-78
2023/06/23 16:25:30;;;;;;;;;;;27.70;58.90;;;;;;6233997;28;2359;-76
2023/06/23 16:28:32;;;;;;;;;;;27.60;59.10;;;;;;6201784;28;2273;-74
2023/06/23 16:31:35;;;;;;;;;;;27.30;60.00;;;;;;6228251;28;1380;-75
2023/06/23 16:34:37;;;;;;;;;;;27.20;58.70;;;;;;6226692;28;1643;-75
2023/06/23 16:37:38;;;;;;;;;;;26.80;60.60;;;;;;6231155;28;1440;-74
2023/06/23 16:40:41;;;;;;;;;;;26.90;59.80;;;;;;6226157;28;1907;-77
2023/06/23 16:43:42;;;;;;;;;;;26.90;58.90;;;;;;6222166;28;2595;-78
2023/06/23 16:46:45;;;;;;;;;;;26.90;58.90;;;;;;6227423;28;1389;-77
2023/06/23 16:49:47;;;;;;;;;;;26.90;59.00;;;;;;6246132;28;1511;-76
2023/06/23 16:52:49;;;;;;;;;;;26.40;59.40;;;;;;6238776;28;1480;-78
2023/06/23 16:55:51;;;;;;;;;;;26.40;60.90;;;;;;6224274;28;1406;-75
2023/06/23 16:58:52;;;;;;;;;;;26.70;61.00;;;;;;6223785;28;1426;-74
2023/06/23 17:01:55;;;;;;;;;;;26.70;60.80;;;;;;6221416;28;1906;-73
2023/06/23 17:04:57;;;;;;;;;;;26.40;61.60;;;;;;6214263;28;2715;-74
2023/06/23 17:07:59;;;;;;;;;;;26.40;63.60;;;;;;6226129;28;1414;-75
2023/06/23 17:11:00;;;;;;;;;;;26.60;61.70;;;;;;6229277;28;1382;-73
2023/06/23 17:14:02;;;;;;;;;;;26.70;60.70;;;;;;6225754;28;1294;-75
2023/06/23 17:17:06;;;;;;;;;;;26.90;62.30;;;;;;6234055;28;1701;-73
2023/06/23 17:20:10;;;;;;;;;;;27.00;61.50;;;;;;6219621;28;2688;-75
2023/06/23 17:23:12;;;;;;;;;;;27.30;60.40;;;;;;6221769;28;1946;-74
2023/06/23 17:26:13;;;;;;;;;;;27.10;61.70;;;;;;6223067;28;1422;-74
2023/06/23 17:29:15;;;;;;;;;;;27.00;61.50;;;;;;6222783;28;1394;-75
2023/06/23 17:32:18;;;;;;;;;;;27.10;60.70;;;;;;6222920;28;1390;-74
2023/06/23 17:35:20;;;;;;;;;;;27.20;60.80;;;;;;6239383;28;1428;-73
2023/06/23 17:38:21;;;;;;;;;;;27.30;61.40;;;;;;6222897;28;1386;-74
2023/06/23 17:41:23;;;;;;;;;;;27.60;61.60;;;;;;6222826;28;1918;-73
2023/06/23 17:44:25;;;;;;;;;;;27.70;60.50;;;;;;6232040;28;2027;-74
2023/06/23 17:47:28;;;;;;;;;;;27.60;60.40;;;;;;6233312;28;1418;-74
2023/06/23 17:50:30;;;;;;;;;;;27.80;60.00;;;;;;6232127;28;1369;-74
2023/06/23 17:53:31;;;;;;;;;;;27.90;59.60;;;;;;6215767;28;2735;-74
2023/06/23 17:56:33;;;;;;;;;;;28.00;59.80;;;;;;6216015;28;2446;-74
2023/06/23 17:59:35;;;;;;;;;;;27.50;60.60;;;;;;6218996;28;1981;-74
2023/06/23 18:02:38;;;;;;;;;;;27.30;62.20;;;;;;6221947;28;1378;-72